Time;durP1;ratioP1;P1;durP2;ratioP2;P2;SDS_P1;SDS_P2;PMS_P1;PMS_P2;Temp;Humidity;BMP_temperature;BMP_pressure;BME280_temperature;BME280_humidity;BME280_pressure;Samples;Min_cycle;Max_cycle;Signal;HPM_P1;HPM_P2
2023/01/10 00:01:33;;;;;;;2.80;1.20;;;;;;;;;;4957663;28;20102;-71
2023/01/10 00:03:59;;;;;;;3.58;1.40;;;;;;;;;;4959795;28;20058;-70
2023/01/10 00:06:25;;;;;;;3.03;1.58;;;;;;;;;;4977334;28;20077;-73
2023/01/10 00:08:51;;;;;;;4.85;1.33;;;;;;;;;;4960708;28;20264;-68
2023/01/10 00:14:01;;;;;;;2.45;1.60;;;;;;;;;;4957591;28;20081;-70
2023/01/10 00:16:27;;;;;;;3.10;1.60;;;;;;;;;;4953126;28;20055;-75
2023/01/10 00:18:53;;;;;;;5.68;1.90;;;;;;;;;;4956297;28;20054;-68
2023/01/10 00:21:19;;;;;;;3.50;1.63;;;;;;;;;;4953882;28;20670;-68
2023/01/10 00:23:45;;;;;;;5.53;2.35;;;;;;;;;;4953876;28;20622;-72
2023/01/10 00:26:11;;;;;;;3.60;2.03;;;;;;;;;;4972202;28;20043;-69
2023/01/10 00:28:38;;;;;;;8.68;2.03;;;;;;;;;;4951991;28;20047;-71
2023/01/10 00:31:05;;;;;;;3.58;1.80;;;;;;;;;;4953427;28;20062;-70
2023/01/10 00:33:36;;;;;;;4.78;1.58;;;;;;;;;;4950823;28;20110;-67
2023/01/10 00:36:05;;;;;;;5.15;1.55;;;;;;;;;;4951745;28;20058;-72
2023/01/10 00:38:32;;;;;;;4.45;1.40;;;;;;;;;;4956087;28;20278;-68
2023/01/10 00:40:58;;;;;;;4.00;1.50;;;;;;;;;;4948189;28;20053;-71
2023/01/10 00:46:10;;;;;;;5.35;1.85;;;;;;;;;;4953285;28;20071;-73
2023/01/10 00:48:35;;;;;;;2.45;1.50;;;;;;;;;;4952749;28;20066;-68
2023/01/10 00:51:03;;;;;;;9.30;1.73;;;;;;;;;;4951145;28;20113;-70
2023/01/10 00:53:29;;;;;;;1.80;1.10;;;;;;;;;;4950945;28;20051;-67
2023/01/10 00:55:55;;;;;;;3.72;1.50;;;;;;;;;;4955082;28;20051;-71
2023/01/10 00:58:21;;;;;;;3.08;1.15;;;;;;;;;;4950623;28;20121;-68
2023/01/10 01:00:51;;;;;;;4.95;1.25;;;;;;;;;;4955645;28;20053;-67
2023/01/10 01:03:18;;;;;;;3.83;1.50;;;;;;;;;;4951303;28;20059;-69
2023/01/10 01:05:46;;;;;;;2.60;1.60;;;;;;;;;;4954986;28;20043;-70
2023/01/10 01:08:13;;;;;;;2.97;1.30;;;;;;;;;;4953399;28;20054;-67
2023/01/10 01:10:39;;;;;;;3.60;1.27;;;;;;;;;;4955020;28;20113;-71
2023/01/10 01:13:17;;;;;;;2.90;1.67;;;;;;;;;;4952160;28;20102;-68
2023/01/10 01:15:43;;;;;;;5.45;1.75;;;;;;;;;;4952669;28;20098;-72
2023/01/10 01:18:13;;;;;;;3.25;1.60;;;;;;;;;;4952791;28;20129;-70
2023/01/10 01:20:40;;;;;;;6.90;1.42;;;;;;;;;;4953786;28;20051;-68
2023/01/10 01:23:06;;;;;;;3.17;1.40;;;;;;;;;;4950833;28;20050;-71
2023/01/10 01:25:32;;;;;;;4.68;1.30;;;;;;;;;;4949837;28;20046;-73
2023/01/10 01:27:58;;;;;;;2.42;1.30;;;;;;;;;;4950116;28;20885;-67
2023/01/10 01:30:24;;;;;;;3.72;1.30;;;;;;;;;;4970734;28;20113;-67
2023/01/10 01:32:50;;;;;;;5.03;1.60;;;;;;;;;;4950357;28;20059;-71
2023/01/10 01:35:16;;;;;;;4.88;1.40;;;;;;;;;;4956444;28;20113;-68
2023/01/10 01:37:43;;;;;;;3.28;1.25;;;;;;;;;;4952724;28;20221;-72
2023/01/10 01:40:17;;;;;;;3.22;1.20;;;;;;;;;;4954241;28;20697;-69
2023/01/10 01:42:44;;;;;;;5.70;1.52;;;;;;;;;;4953549;28;20051;-73
2023/01/10 01:45:13;;;;;;;2.25;1.20;;;;;;;;;;4954256;28;20249;-68
2023/01/10 01:47:48;;;;;;;2.53;1.50;;;;;;;;;;4946922;28;20058;-68
2023/01/10 01:50:27;;;;;;;2.55;1.30;;;;;;;;;;4954480;28;20039;-68
2023/01/10 01:52:56;;;;;;;5.78;1.25;;;;;;;;;;4946682;28;20079;-70
2023/01/10 01:55:26;;;;;;;3.03;1.20;;;;;;;;;;4955333;28;20049;-69
2023/01/10 01:57:54;;;;;;;4.22;1.40;;;;;;;;;;4956095;28;20125;-75
2023/01/10 02:00:20;;;;;;;3.78;1.25;;;;;;;;;;4957027;28;20055;-66
2023/01/10 02:02:52;;;;;;;2.08;1.20;;;;;;;;;;4956937;28;20237;-69
2023/01/10 02:05:23;;;;;;;1.98;1.23;;;;;;;;;;4959556;28;20058;-68
2023/01/10 02:07:56;;;;;;;1.55;0.95;;;;;;;;;;4952548;28;20431;-71
2023/01/10 02:10:34;;;;;;;1.92;1.10;;;;;;;;;;4949228;28;20056;-72
2023/01/10 02:13:03;;;;;;;2.80;1.40;;;;;;;;;;4946799;28;20055;-66
2023/01/10 02:15:30;;;;;;;2.97;1.13;;;;;;;;;;4953919;28;20055;-66
2023/01/10 02:17:58;;;;;;;1.75;1.10;;;;;;;;;;4955152;28;20086;-68
2023/01/10 02:20:25;;;;;;;3.10;1.40;;;;;;;;;;4959122;28;20586;-67
2023/01/10 02:23:23;;;;;;;2.75;1.20;;;;;;;;;;4960535;28;20074;-68
2023/01/10 02:26:25;;;;;;;5.32;1.30;;;;;;;;;;4951519;28;20110;-67
2023/01/10 02:29:09;;;;;;;5.28;1.23;;;;;;;;;;4956173;28;20091;-71
2023/01/10 02:31:56;;;;;;;2.40;1.27;;;;;;;;;;4949898;28;20635;-71
2023/01/10 02:35:01;;;;;;;3.28;1.35;;;;;;;;;;4959797;28;20050;-71
2023/01/10 02:37:37;;;;;;;2.50;1.00;;;;;;;;;;4953157;28;20264;-70
2023/01/10 02:40:22;;;;;;;3.53;1.42;;;;;;;;;;4955028;28;20043;-72
2023/01/10 02:43:06;;;;;;;2.60;1.27;;;;;;;;;;4951502;28;20441;-70
2023/01/10 02:45:49;;;;;;;8.00;1.20;;;;;;;;;;4956012;28;20053;-67
2023/01/10 02:48:16;;;;;;;4.35;1.10;;;;;;;;;;4958006;28;20113;-66
2023/01/10 02:50:42;;;;;;;3.20;1.20;;;;;;;;;;4956062;28;20069;-68
2023/01/10 02:53:23;;;;;;;2.72;1.27;;;;;;;;;;4949370;28;20051;-67
2023/01/10 02:55:54;;;;;;;2.00;1.13;;;;;;;;;;4949644;28;20492;-66
2023/01/10 02:58:48;;;;;;;4.07;1.45;;;;;;;;;;4960426;28;20054;-67
2023/01/10 03:01:45;;;;;;;2.47;1.20;;;;;;;;;;4953373;28;20082;-67
2023/01/10 03:04:44;;;;;;;2.67;1.60;;;;;;;;;;4953163;28;20055;-66
2023/01/10 03:07:26;;;;;;;3.22;1.20;;;;;;;;;;4956622;28;20474;-68
2023/01/10 03:10:18;;;;;;;2.25;1.10;;;;;;;;;;4960222;28;20051;-72
2023/01/10 03:13:03;;;;;;;2.88;1.48;;;;;;;;;;4938865;28;20051;-72
2023/01/10 03:15:35;;;;;;;1.73;0.98;;;;;;;;;;4955468;28;20531;-71
2023/01/10 03:18:05;;;;;;;2.20;1.10;;;;;;;;;;4956440;28;20050;-70
2023/01/10 03:20:35;;;;;;;1.38;0.80;;;;;;;;;;4953267;28;20081;-73
2023/01/10 03:23:04;;;;;;;2.97;1.10;;;;;;;;;;4956142;28;20115;-67
2023/01/10 03:25:34;;;;;;;2.08;0.95;;;;;;;;;;4957020;28;20181;-69
2023/01/10 03:28:18;;;;;;;3.85;1.00;;;;;;;;;;4955136;28;20046;-68
2023/01/10 03:30:58;;;;;;;2.53;1.00;;;;;;;;;;4957660;28;20055;-67
2023/01/10 03:33:27;;;;;;;4.47;1.10;;;;;;;;;;4958151;28;20125;-67
2023/01/10 03:36:03;;;;;;;4.10;1.00;;;;;;;;;;4955128;28;20166;-66
2023/01/10 03:38:40;;;;;;;3.70;1.02;;;;;;;;;;4957926;28;20527;-72
2023/01/10 03:41:11;;;;;;;6.45;1.00;;;;;;;;;;4955478;28;20065;-71
2023/01/10 03:46:48;;;;;;;1.17;0.90;;;;;;;;;;4954113;28;20298;-69
2023/01/10 03:49:17;;;;;;;2.50;1.00;;;;;;;;;;4956564;28;20078;-66
2023/01/10 03:51:43;;;;;;;3.88;1.38;;;;;;;;;;4954528;28;20058;-69
2023/01/10 03:54:11;;;;;;;2.00;1.00;;;;;;;;;;4959658;28;20514;-70
2023/01/10 03:56:51;;;;;;;2.83;1.33;;;;;;;;;;4959673;28;20054;-66
2023/01/10 03:59:19;;;;;;;3.40;1.08;;;;;;;;;;4951797;28;20051;-65
2023/01/10 04:01:45;;;;;;;3.92;1.20;;;;;;;;;;4957301;28;20400;-68
2023/01/10 04:04:11;;;;;;;2.22;1.10;;;;;;;;;;4962043;28;20043;-70
2023/01/10 04:06:37;;;;;;;3.60;1.30;;;;;;;;;;4955307;28;20488;-66
2023/01/10 04:09:03;;;;;;;3.50;1.25;;;;;;;;;;4952432;28;20194;-69
2023/01/10 04:11:29;;;;;;;6.75;1.27;;;;;;;;;;4952975;28;20055;-66
2023/01/10 04:13:55;;;;;;;2.25;1.00;;;;;;;;;;4954567;28;20609;-70
2023/01/10 04:16:21;;;;;;;2.72;1.30;;;;;;;;;;4951695;28;20047;-69
2023/01/10 04:18:47;;;;;;;2.97;1.25;;;;;;;;;;4947333;28;20416;-67
2023/01/10 04:21:13;;;;;;;2.70;1.33;;;;;;;;;;4955625;28;20079;-70
2023/01/10 04:23:38;;;;;;;3.92;1.33;;;;;;;;;;4955289;28;20050;-69
2023/01/10 04:26:04;;;;;;;1.95;1.20;;;;;;;;;;4951776;28;20362;-67
2023/01/10 04:28:30;;;;;;;3.90;1.30;;;;;;;;;;4951817;28;20055;-66
2023/01/10 04:30:56;;;;;;;2.60;1.25;;;;;;;;;;4955950;28;20489;-70
2023/01/10 04:33:22;;;;;;;3.00;1.33;;;;;;;;;;4954033;28;20125;-71
2023/01/10 04:35:50;;;;;;;5.97;1.52;;;;;;;;;;4951701;28;20512;-69
2023/01/10 04:38:16;;;;;;;2.40;1.25;;;;;;;;;;4954467;28;20140;-69
2023/01/10 04:40:42;;;;;;;3.40;1.50;;;;;;;;;;4955840;28;20058;-71
2023/01/10 04:43:09;;;;;;;4.15;1.63;;;;;;;;;;4954740;28;20055;-67
2023/01/10 04:45:36;;;;;;;4.50;1.98;;;;;;;;;;4954195;28;20047;-67
2023/01/10 04:48:02;;;;;;;3.33;1.80;;;;;;;;;;4950271;28;20043;-70
2023/01/10 04:50:28;;;;;;;3.90;1.85;;;;;;;;;;4955997;28;20063;-72
2023/01/10 04:52:54;;;;;;;2.20;1.52;;;;;;;;;;4958249;28;20054;-66
2023/01/10 04:55:20;;;;;;;2.63;1.40;;;;;;;;;;4952514;28;20158;-70
2023/01/10 04:57:46;;;;;;;4.40;1.67;;;;;;;;;;4956368;28;20054;-68
2023/01/10 05:00:12;;;;;;;1.98;1.23;;;;;;;;;;4954336;28;20057;-70
2023/01/10 05:02:44;;;;;;;2.55;1.70;;;;;;;;;;4957894;28;20050;-70
2023/01/10 05:05:11;;;;;;;2.97;1.55;;;;;;;;;;4960803;28;20082;-68
2023/01/10 05:07:38;;;;;;;4.43;1.50;;;;;;;;;;4951968;28;20107;-65
2023/01/10 05:10:06;;;;;;;4.38;1.95;;;;;;;;;;4958733;28;20778;-67
2023/01/10 05:12:32;;;;;;;1.90;1.30;;;;;;;;;;4957445;28;20111;-67
2023/01/10 05:14:58;;;;;;;3.80;1.92;;;;;;;;;;4961050;28;20047;-69
2023/01/10 05:17:25;;;;;;;4.57;1.75;;;;;;;;;;4957547;28;20339;-69
2023/01/10 05:19:51;;;;;;;2.42;1.63;;;;;;;;;;4956582;28;20063;-67
2023/01/10 05:22:16;;;;;;;6.88;1.90;;;;;;;;;;4956046;28;20383;-72
2023/01/10 05:24:42;;;;;;;3.30;1.80;;;;;;;;;;4953581;28;20130;-67
2023/01/10 05:27:08;;;;;;;3.17;1.77;;;;;;;;;;4952623;28;20050;-70
2023/01/10 05:29:34;;;;;;;3.15;1.80;;;;;;;;;;4951454;28;20054;-74
2023/01/10 05:32:00;;;;;;;4.18;1.40;;;;;;;;;;4952715;28;20812;-70
2023/01/10 05:34:26;;;;;;;3.67;1.80;;;;;;;;;;4951312;28;20114;-74
2023/01/10 05:36:52;;;;;;;4.97;1.77;;;;;;;;;;4956165;28;20042;-73
2023/01/10 05:39:18;;;;;;;4.22;1.80;;;;;;;;;;4956142;28;20146;-72
2023/01/10 05:41:44;;;;;;;3.05;1.88;;;;;;;;;;4951472;28;20054;-68
2023/01/10 05:44:10;;;;;;;3.00;1.63;;;;;;;;;;4957224;28;20063;-70
2023/01/10 05:46:36;;;;;;;4.95;1.80;;;;;;;;;;4957739;28;20578;-69
2023/01/10 05:49:02;;;;;;;3.83;1.98;;;;;;;;;;4952681;28;20420;-73
2023/01/10 05:51:28;;;;;;;3.20;1.95;;;;;;;;;;4954576;28;20055;-72
2023/01/10 05:53:54;;;;;;;4.55;2.15;;;;;;;;;;4950191;28;20054;-71
2023/01/10 05:56:19;;;;;;;6.60;1.88;;;;;;;;;;4947223;28;20050;-67
2023/01/10 05:58:46;;;;;;;4.00;1.95;;;;;;;;;;4946376;28;20465;-69
2023/01/10 06:01:11;;;;;;;3.35;1.83;;;;;;;;;;4953453;28;20085;-68
2023/01/10 06:03:38;;;;;;;6.65;1.90;;;;;;;;;;4943387;28;20056;-69
2023/01/10 06:06:04;;;;;;;4.03;2.00;;;;;;;;;;4957087;28;20061;-70
2023/01/10 06:08:30;;;;;;;4.18;1.92;;;;;;;;;;4951844;28;20476;-74
2023/01/10 06:10:56;;;;;;;3.10;1.65;;;;;;;;;;4949889;28;20051;-69
2023/01/10 06:13:22;;;;;;;5.25;1.80;;;;;;;;;;4950066;28;20053;-70
2023/01/10 06:15:48;;;;;;;2.90;2.03;;;;;;;;;;4954462;28;20049;-74
2023/01/10 06:18:15;;;;;;;4.68;2.20;;;;;;;;;;4951474;28;20093;-68
2023/01/10 06:20:43;;;;;;;3.88;1.83;;;;;;;;;;4949151;28;20043;-69
2023/01/10 06:23:09;;;;;;;3.65;1.73;;;;;;;;;;4950610;28;20062;-71
2023/01/10 06:25:39;;;;;;;3.72;1.80;;;;;;;;;;4952834;28;20054;-69
2023/01/10 06:28:06;;;;;;;5.18;2.13;;;;;;;;;;4956129;28;20448;-71
2023/01/10 06:30:34;;;;;;;3.35;2.00;;;;;;;;;;4947118;28;20135;-75
2023/01/10 06:33:04;;;;;;;3.38;1.60;;;;;;;;;;4952300;28;20050;-69
2023/01/10 06:35:31;;;;;;;9.63;1.80;;;;;;;;;;4941319;28;20525;-68
2023/01/10 06:37:58;;;;;;;5.68;1.60;;;;;;;;;;4954454;28;20476;-69
2023/01/10 06:40:24;;;;;;;3.58;1.77;;;;;;;;;;4956969;28;20047;-73
2023/01/10 06:42:50;;;;;;;3.92;1.60;;;;;;;;;;4955646;28;20131;-67
2023/01/10 06:45:17;;;;;;;3.08;1.55;;;;;;;;;;4957082;28;20261;-69
2023/01/10 06:47:43;;;;;;;3.95;1.50;;;;;;;;;;4953701;28;20364;-72
2023/01/10 06:50:10;;;;;;;4.10;1.85;;;;;;;;;;4958585;28;20066;-69
2023/01/10 06:52:36;;;;;;;4.18;1.95;;;;;;;;;;4953924;28;20105;-69
2023/01/10 06:55:03;;;;;;;7.30;1.85;;;;;;;;;;4954974;28;20062;-74
2023/01/10 06:57:29;;;;;;;5.10;1.88;;;;;;;;;;4952585;28;20524;-67
2023/01/10 06:59:55;;;;;;;3.47;1.45;;;;;;;;;;4954460;28;20151;-70
2023/01/10 07:02:21;;;;;;;2.65;1.40;;;;;;;;;;4952390;28;20051;-72
2023/01/10 07:04:47;;;;;;;3.28;1.45;;;;;;;;;;4952003;28;20274;-73
2023/01/10 07:07:14;;;;;;;11.25;1.80;;;;;;;;;;4954047;28;20054;-77
2023/01/10 07:09:39;;;;;;;2.35;1.27;;;;;;;;;;4958057;28;20071;-70
2023/01/10 07:12:06;;;;;;;5.60;1.65;;;;;;;;;;4951975;28;20052;-70
2023/01/10 07:14:31;;;;;;;5.93;1.63;;;;;;;;;;4952541;28;20065;-66
2023/01/10 07:16:57;;;;;;;4.63;1.73;;;;;;;;;;4958210;28;20484;-71
2023/01/10 07:19:23;;;;;;;8.68;2.13;;;;;;;;;;4951640;28;20050;-69
2023/01/10 07:21:49;;;;;;;3.25;1.70;;;;;;;;;;4954719;28;20116;-68
2023/01/10 07:24:15;;;;;;;5.32;1.65;;;;;;;;;;4951183;28;20497;-70
2023/01/10 07:26:41;;;;;;;5.80;2.80;;;;;;;;;;4956395;28;20042;-64
2023/01/10 07:29:07;;;;;;;11.15;3.75;;;;;;;;;;4950974;28;20645;-72
2023/01/10 07:31:33;;;;;;;7.30;2.75;;;;;;;;;;4946499;28;20066;-71
2023/01/10 07:33:59;;;;;;;9.05;3.80;;;;;;;;;;4955523;28;20917;-77
2023/01/10 07:36:25;;;;;;;7.55;3.50;;;;;;;;;;4956988;28;20081;-75
2023/01/10 07:38:51;;;;;;;8.20;2.72;;;;;;;;;;4956353;28;20051;-68
2023/01/10 07:41:17;;;;;;;7.90;2.80;;;;;;;;;;4955434;28;20133;-73
2023/01/10 07:43:43;;;;;;;4.95;2.70;;;;;;;;;;4955195;28;20038;-77
2023/01/10 07:46:11;;;;;;;9.38;2.88;;;;;;;;;;4955293;28;20460;-77
2023/01/10 07:48:38;;;;;;;7.20;2.10;;;;;;;;;;4945747;28;20480;-71
2023/01/10 07:51:04;;;;;;;5.55;2.20;;;;;;;;;;4951374;28;20058;-68
2023/01/10 07:53:30;;;;;;;6.97;2.25;;;;;;;;;;4958054;28;20054;-68
2023/01/10 07:56:01;;;;;;;6.53;2.67;;;;;;;;;;4963159;28;20113;-75
2023/01/10 07:58:27;;;;;;;5.75;2.60;;;;;;;;;;4959588;28;20461;-73
2023/01/10 08:00:58;;;;;;;10.40;2.33;;;;;;;;;;4966857;28;20055;-78
2023/01/10 08:03:24;;;;;;;6.78;2.13;;;;;;;;;;4962058;28;20412;-76
2023/01/10 08:05:58;;;;;;;9.18;2.15;;;;;;;;;;4960323;28;20050;-67
2023/01/10 08:08:23;;;;;;;5.53;2.20;;;;;;;;;;4960780;28;20055;-75
2023/01/10 08:10:49;;;;;;;16.02;2.20;;;;;;;;;;4961619;28;21173;-67
2023/01/10 08:13:15;;;;;;;7.57;1.60;;;;;;;;;;4968273;28;20058;-70
2023/01/10 08:15:41;;;;;;;4.10;2.10;;;;;;;;;;4963775;28;20043;-70
2023/01/10 08:18:07;;;;;;;9.30;2.38;;;;;;;;;;4960612;28;20524;-71
2023/01/10 08:20:33;;;;;;;9.73;1.88;;;;;;;;;;4957447;28;20273;-72
2023/01/10 08:22:59;;;;;;;6.80;2.28;;;;;;;;;;4955300;28;20066;-71
2023/01/10 08:25:25;;;;;;;10.50;2.33;;;;;;;;;;4961552;28;20046;-68
2023/01/10 08:27:51;;;;;;;11.60;2.50;;;;;;;;;;4958579;28;20057;-73
2023/01/10 08:30:18;;;;;;;10.20;2.30;;;;;;;;;;4955362;28;20449;-70
2023/01/10 08:32:43;;;;;;;6.63;1.80;;;;;;;;;;4960756;28;20093;-70
2023/01/10 08:35:10;;;;;;;10.30;2.20;;;;;;;;;;4959899;28;20489;-69
2023/01/10 08:37:36;;;;;;;6.43;2.22;;;;;;;;;;4952903;28;20073;-67
2023/01/10 08:40:02;;;;;;;6.72;1.90;;;;;;;;;;4957943;28;20066;-70
2023/01/10 08:42:28;;;;;;;5.63;1.90;;;;;;;;;;4954285;28;20738;-68
2023/01/10 08:44:54;;;;;;;10.93;2.42;;;;;;;;;;4951602;28;20047;-73
2023/01/10 08:47:20;;;;;;;13.88;2.40;;;;;;;;;;4959395;28;20050;-73
2023/01/10 08:49:48;;;;;;;7.70;2.55;;;;;;;;;;4963484;28;20102;-76
2023/01/10 08:52:15;;;;;;;12.25;2.38;;;;;;;;;;4954896;28;20169;-76
2023/01/10 08:54:41;;;;;;;9.52;2.30;;;;;;;;;;4957768;28;20047;-68
2023/01/10 08:57:07;;;;;;;16.52;3.17;;;;;;;;;;4961302;28;20129;-70
2023/01/10 08:59:33;;;;;;;10.23;2.78;;;;;;;;;;4965307;28;20050;-76
2023/01/10 09:01:59;;;;;;;8.60;3.15;;;;;;;;;;4957411;28;20519;-68
2023/01/10 09:04:27;;;;;;;7.30;2.45;;;;;;;;;;4947824;28;20050;-69
2023/01/10 09:06:54;;;;;;;6.88;2.30;;;;;;;;;;4951633;28;20066;-74
2023/01/10 09:09:20;;;;;;;9.05;2.45;;;;;;;;;;4958142;28;20054;-71
2023/01/10 09:11:46;;;;;;;12.77;2.35;;;;;;;;;;4962945;28;20046;-71
2023/01/10 09:14:12;;;;;;;10.20;2.70;;;;;;;;;;4973280;28;20679;-73
2023/01/10 09:16:39;;;;;;;14.02;2.40;;;;;;;;;;4963716;28;20101;-71
2023/01/10 09:19:05;;;;;;;10.32;2.35;;;;;;;;;;4964468;28;20051;-69
2023/01/10 09:21:30;;;;;;;8.10;2.50;;;;;;;;;;4955832;28;20047;-67
2023/01/10 09:23:56;;;;;;;6.38;2.20;;;;;;;;;;4961833;28;20664;-67
2023/01/10 09:26:22;;;;;;;12.80;2.30;;;;;;;;;;4956447;28;20047;-68
2023/01/10 09:28:48;;;;;;;4.95;2.05;;;;;;;;;;4948200;28;20509;-74
2023/01/10 09:31:14;;;;;;;5.53;2.13;;;;;;;;;;4959689;28;20074;-68
2023/01/10 09:33:41;;;;;;;4.63;2.03;;;;;;;;;;4957145;28;20054;-68
2023/01/10 09:36:07;;;;;;;4.40;2.40;;;;;;;;;;4955732;28;20093;-74
2023/01/10 09:38:34;;;;;;;11.73;2.25;;;;;;;;;;4956933;28;20050;-70
2023/01/10 09:41:03;;;;;;;6.63;2.20;;;;;;;;;;4962356;28;20385;-68
2023/01/10 09:43:43;;;;;;;6.65;2.05;;;;;;;;;;4964355;28;20062;-70
2023/01/10 09:46:36;;;;;;;6.07;2.65;;;;;;;;;;4957248;28;20393;-74
2023/01/10 09:49:24;;;;;;;5.55;2.00;;;;;;;;;;4959466;28;20527;-71
2023/01/10 09:51:52;;;;;;;7.13;2.05;;;;;;;;;;4962766;28;20039;-73
2023/01/10 09:54:52;;;;;;;4.38;2.17;;;;;;;;;;4964713;28;20070;-72
2023/01/10 09:57:20;;;;;;;7.47;2.33;;;;;;;;;;4921672;28;20050;-76
2023/01/10 09:59:50;;;;;;;7.53;2.55;;;;;;;;;;4952179;28;20046;-67
2023/01/10 10:02:19;;;;;;;6.18;2.50;;;;;;;;;;4956215;28;20043;-73
2023/01/10 10:05:14;;;;;;;6.90;2.10;;;;;;;;;;4956040;28;20205;-72
2023/01/10 10:07:40;;;;;;;6.53;2.60;;;;;;;;;;4947081;28;20121;-74
2023/01/10 10:10:11;;;;;;;11.57;2.53;;;;;;;;;;4958141;28;20062;-67
2023/01/10 10:12:54;;;;;;;9.55;2.50;;;;;;;;;;4954730;28;20051;-68
2023/01/10 10:15:38;;;;;;;8.50;2.88;;;;;;;;;;4955513;28;20697;-68
2023/01/10 10:18:16;;;;;;;4.78;2.22;;;;;;;;;;4957803;28;20608;-70
2023/01/10 10:20:48;;;;;;;10.95;2.90;;;;;;;;;;4954133;28;20637;-69
2023/01/10 10:23:35;;;;;;;6.05;2.50;;;;;;;;;;4951592;28;20515;-76
2023/01/10 10:26:20;;;;;;;5.57;2.50;;;;;;;;;;4956193;28;20386;-74
2023/01/10 10:29:01;;;;;;;6.55;2.70;;;;;;;;;;4962784;28;20166;-72
2023/01/10 10:31:38;;;;;;;10.52;3.00;;;;;;;;;;4961867;28;20045;-76
2023/01/10 10:34:09;;;;;;;5.65;2.85;;;;;;;;;;4958860;28;20078;-73
2023/01/10 10:36:48;;;;;;;10.80;4.95;;;;;;;;;;4949300;28;20157;-68
2023/01/10 10:39:40;;;;;;;9.73;5.90;;;;;;;;;;4955352;28;20636;-68
2023/01/10 10:42:12;;;;;;;17.42;6.45;;;;;;;;;;4956813;28;20105;-72
2023/01/10 10:44:59;;;;;;;31.67;6.90;;;;;;;;;;4952935;28;20046;-75
2023/01/10 10:47:31;;;;;;;10.07;5.30;;;;;;;;;;4949748;28;20055;-74
2023/01/10 10:50:14;;;;;;;18.00;6.13;;;;;;;;;;4950205;28;20154;-69
2023/01/10 10:52:42;;;;;;;13.00;4.53;;;;;;;;;;4952200;28;20048;-71
2023/01/10 10:55:17;;;;;;;9.13;5.05;;;;;;;;;;4955210;28;20043;-71
2023/01/10 10:57:45;;;;;;;11.88;4.90;;;;;;;;;;4950410;28;20271;-72
2023/01/10 11:00:18;;;;;;;12.57;4.95;;;;;;;;;;4953209;28;20046;-68
2023/01/10 11:02:53;;;;;;;8.20;2.90;;;;;;;;;;4956073;28;20074;-71
2023/01/10 11:05:36;;;;;;;3.63;2.17;;;;;;;;;;4948905;28;20401;-71
2023/01/10 11:08:23;;;;;;;4.78;2.15;;;;;;;;;;4953342;28;20053;-67
2023/01/10 11:10:53;;;;;;;5.22;1.80;;;;;;;;;;4950968;28;20119;-70
2023/01/10 11:13:25;;;;;;;5.82;2.05;;;;;;;;;;4952032;28;20077;-66
2023/01/10 11:15:51;;;;;;;6.35;2.20;;;;;;;;;;4958723;28;20066;-67
2023/01/10 11:18:23;;;;;;;5.25;2.28;;;;;;;;;;4961310;28;20922;-66
2023/01/10 11:21:06;;;;;;;4.90;2.15;;;;;;;;;;4954503;28;20811;-70
2023/01/10 11:23:51;;;;;;;3.40;1.80;;;;;;;;;;4954401;28;20470;-73
2023/01/10 11:26:30;;;;;;;4.20;1.70;;;;;;;;;;4959557;28;20071;-73
2023/01/10 11:29:04;;;;;;;6.47;1.90;;;;;;;;;;4960639;28;20058;-72
2023/01/10 11:31:32;;;;;;;10.45;2.25;;;;;;;;;;4963162;28;20163;-71
2023/01/10 11:33:58;;;;;;;5.60;2.10;;;;;;;;;;4959228;28;20196;-74
2023/01/10 11:36:24;;;;;;;4.25;1.95;;;;;;;;;;4961223;28;20062;-77
2023/01/10 11:39:02;;;;;;;2.25;1.60;;;;;;;;;;4962383;28;20133;-70
2023/01/10 11:41:33;;;;;;;4.20;2.00;;;;;;;;;;4951480;28;20054;-71
2023/01/10 11:44:16;;;;;;;3.80;1.60;;;;;;;;;;4956350;28;20326;-68
2023/01/10 11:46:44;;;;;;;3.08;1.70;;;;;;;;;;4962829;28;20070;-78
2023/01/10 11:49:18;;;;;;;3.63;1.85;;;;;;;;;;4953313;28;20042;-69
2023/01/10 11:51:48;;;;;;;5.10;2.00;;;;;;;;;;4963752;28;20058;-67
2023/01/10 11:54:24;;;;;;;17.02;2.08;;;;;;;;;;4956793;28;20059;-68
2023/01/10 11:56:57;;;;;;;5.75;1.80;;;;;;;;;;4956795;28;20138;-74
2023/01/10 11:59:25;;;;;;;10.55;1.85;;;;;;;;;;4953804;28;20062;-69
2023/01/10 12:02:16;;;;;;;2.90;1.60;;;;;;;;;;4965524;28;20517;-68
2023/01/10 12:04:46;;;;;;;4.95;1.85;;;;;;;;;;4955724;28;20157;-72
2023/01/10 12:07:12;;;;;;;5.70;1.98;;;;;;;;;;4961111;28;20799;-74
2023/01/10 12:09:42;;;;;;;4.50;2.13;;;;;;;;;;4960525;28;20054;-70
2023/01/10 12:12:24;;;;;;;4.70;1.67;;;;;;;;;;4964009;28;20105;-69
2023/01/10 12:14:52;;;;;;;3.13;1.58;;;;;;;;;;4953670;28;20051;-75
2023/01/10 12:17:26;;;;;;;7.03;1.55;;;;;;;;;;4951840;28;20049;-72
2023/01/10 12:19:57;;;;;;;7.13;1.85;;;;;;;;;;4963056;28;20173;-67
2023/01/10 12:22:30;;;;;;;4.72;1.58;;;;;;;;;;4957471;28;20199;-74
2023/01/10 12:24:58;;;;;;;3.30;1.98;;;;;;;;;;4960820;28;20146;-69
2023/01/10 12:27:27;;;;;;;6.22;1.60;;;;;;;;;;4962864;28;20049;-69
2023/01/10 12:30:14;;;;;;;5.35;2.20;;;;;;;;;;4955562;28;20054;-71
2023/01/10 12:32:56;;;;;;;7.13;2.30;;;;;;;;;;4952831;28;20046;-71
2023/01/10 12:35:33;;;;;;;4.38;1.92;;;;;;;;;;4957136;28;20425;-68
2023/01/10 12:38:06;;;;;;;8.27;3.88;;;;;;;;;;4953587;28;20046;-73
2023/01/10 12:40:32;;;;;;;6.28;2.30;;;;;;;;;;4956858;28;20065;-68
2023/01/10 12:45:58;;;;;;;9.23;2.33;;;;;;;;;;4949955;28;20057;-71
2023/01/10 12:48:48;;;;;;;3.55;1.70;;;;;;;;;;4948444;28;20043;-74
2023/01/10 12:51:20;;;;;;;4.35;1.63;;;;;;;;;;4955040;28;20050;-67
2023/01/10 12:54:02;;;;;;;3.25;1.75;;;;;;;;;;4958886;28;20057;-70
2023/01/10 12:56:28;;;;;;;5.03;1.50;;;;;;;;;;4952404;28;20062;-67
2023/01/10 12:58:59;;;;;;;3.15;1.50;;;;;;;;;;4950844;28;20047;-70
2023/01/10 13:01:31;;;;;;;3.67;1.40;;;;;;;;;;4947560;28;20409;-73
2023/01/10 13:04:09;;;;;;;2.95;1.20;;;;;;;;;;4950714;28;20047;-69
2023/01/10 13:06:39;;;;;;;3.13;1.73;;;;;;;;;;4958933;28;20054;-72
2023/01/10 13:09:27;;;;;;;2.60;1.10;;;;;;;;;;4973741;28;20852;-75
2023/01/10 13:12:07;;;;;;;1.92;1.30;;;;;;;;;;4949174;28;20090;-71
2023/01/10 13:15:05;;;;;;;8.10;1.80;;;;;;;;;;4954364;28;20047;-74
2023/01/10 13:17:42;;;;;;;3.00;1.50;;;;;;;;;;4953304;28;20039;-68
2023/01/10 13:20:23;;;;;;;4.45;1.80;;;;;;;;;;4953737;28;20047;-71
2023/01/10 13:22:52;;;;;;;2.67;1.38;;;;;;;;;;4956427;28;20055;-78
2023/01/10 13:25:29;;;;;;;3.33;1.42;;;;;;;;;;4954831;28;20453;-68
2023/01/10 13:28:05;;;;;;;5.25;1.50;;;;;;;;;;4958756;28;20077;-69
2023/01/10 13:30:41;;;;;;;2.97;1.42;;;;;;;;;;4960970;28;20062;-79
2023/01/10 13:33:21;;;;;;;5.53;1.50;;;;;;;;;;4957815;28;20058;-72
2023/01/10 13:35:48;;;;;;;4.50;1.70;;;;;;;;;;4952090;28;20108;-67
2023/01/10 13:38:29;;;;;;;3.78;1.50;;;;;;;;;;4950405;28;20106;-73
2023/01/10 13:44:07;;;;;;;1.52;1.15;;;;;;;;;;4954247;28;20047;-69
2023/01/10 13:46:39;;;;;;;1.75;1.25;;;;;;;;;;4950193;28;20078;-79
2023/01/10 13:49:08;;;;;;;6.57;1.58;;;;;;;;;;4955407;28;20139;-72
2023/01/10 13:51:36;;;;;;;3.30;1.42;;;;;;;;;;4952584;28;20055;-75
2023/01/10 13:54:23;;;;;;;2.88;1.20;;;;;;;;;;4950130;28;20109;-72
2023/01/10 13:56:48;;;;;;;3.28;1.55;;;;;;;;;;4957863;28;20562;-74
2023/01/10 14:02:30;;;;;;;2.08;1.27;;;;;;;;;;4952238;28;20035;-72
2023/01/10 14:05:05;;;;;;;3.85;1.42;;;;;;;;;;4957540;28;22612;-72
2023/01/10 14:07:44;;;;;;;2.65;1.27;;;;;;;;;;4950442;28;20461;-76
2023/01/10 14:10:31;;;;;;;4.50;1.75;;;;;;;;;;4959592;28;20539;-72
2023/01/10 14:13:08;;;;;;;4.35;1.83;;;;;;;;;;4956890;28;20046;-70
2023/01/10 14:15:40;;;;;;;1.75;1.20;;;;;;;;;;4956533;28;20047;-76
2023/01/10 14:18:34;;;;;;;1.80;1.27;;;;;;;;;;4954416;28;20042;-71
2023/01/10 14:21:08;;;;;;;2.58;1.00;;;;;;;;;;4947666;28;20055;-69
2023/01/10 14:23:48;;;;;;;2.80;1.80;;;;;;;;;;4953554;28;20042;-73
2023/01/10 14:26:36;;;;;;;4.13;1.50;;;;;;;;;;4953262;28;20079;-75
2023/01/10 14:29:12;;;;;;;2.05;1.17;;;;;;;;;;4949667;28;20149;-80
2023/01/10 14:31:46;;;;;;;4.13;1.20;;;;;;;;;;4956192;28;20102;-73
2023/01/10 14:34:22;;;;;;;3.63;1.98;;;;;;;;;;4957249;28;20138;-69
2023/01/10 14:36:57;;;;;;;5.88;1.40;;;;;;;;;;4952290;28;20063;-71
2023/01/10 14:39:25;;;;;;;3.75;1.50;;;;;;;;;;4958766;28;20054;-76
2023/01/10 14:41:59;;;;;;;1.88;1.30;;;;;;;;;;4962702;28;20063;-70
2023/01/10 14:44:46;;;;;;;2.35;1.50;;;;;;;;;;4948620;28;20587;-74
2023/01/10 14:47:31;;;;;;;3.67;1.30;;;;;;;;;;4954221;28;20580;-73
2023/01/10 14:50:06;;;;;;;;;;;;;;;;;;4963198;28;20057;-68
2023/01/10 14:52:32;;;;;;;3.97;1.63;;;;;;;;;;4954301;28;19997;-69
2023/01/10 14:55:11;;;;;;;3.33;2.00;;;;;;;;;;4951735;28;20644;-77
2023/01/10 14:57:37;;;;;;;2.20;1.40;;;;;;;;;;4946453;28;20051;-68
2023/01/10 15:00:15;;;;;;;2.97;1.50;;;;;;;;;;4958642;28;21020;-71
2023/01/10 15:02:46;;;;;;;6.05;1.52;;;;;;;;;;4965294;28;20049;-73
2023/01/10 15:05:22;;;;;;;6.20;1.65;;;;;;;;;;4956064;28;20051;-75
2023/01/10 15:07:48;;;;;;;1.98;1.38;;;;;;;;;;4959341;28;20101;-73
2023/01/10 15:10:27;;;;;;;2.63;2.00;;;;;;;;;;4951775;28;20058;-73
2023/01/10 15:12:59;;;;;;;3.78;1.55;;;;;;;;;;4962965;28;20397;-69
2023/01/10 15:15:36;;;;;;;4.60;1.92;;;;;;;;;;4965568;28;20050;-69
2023/01/10 15:18:20;;;;;;;5.80;3.28;;;;;;;;;;4953169;28;20047;-76
2023/01/10 15:20:47;;;;;;;3.83;2.05;;;;;;;;;;4953085;28;20053;-71
2023/01/10 15:23:14;;;;;;;4.47;2.15;;;;;;;;;;4955436;28;20051;-77
2023/01/10 15:25:42;;;;;;;7.50;2.40;;;;;;;;;;4957788;28;20038;-68